sensor_id;sensor_type;location;lat;lon;timestamp;pressure;altitude;pressure_sealevel;temperature;humidity
44127;BME280;29786;50.798;7.302;2023-05-19T00:02:39;100080;;;9.31;96.99
44127;BME280;29786;50.798;7.302;2023-05-19T00:07:36;100060;;;9.18;96.35
44127;BME280;29786;50.798;7.302;2023-05-19T00:11:18;100080;;;9.16;97.06
44127;BME280;29786;50.798;7.302;2023-05-19T00:12:32;100080;;;9.14;98.52
44127;BME280;29786;50.798;7.302;2023-05-19T00:18:42;100070;;;8.89;100
44127;BME280;29786;50.798;7.302;2023-05-19T00:23:39;100060;;;8.97;100
44127;BME280;29786;50.798;7.302;2023-05-19T00:28:36;100040;;;8.93;100
44127;BME280;29786;50.798;7.302;2023-05-19T00:33:32;100060;;;9.22;99.25
44127;BME280;29786;50.798;7.302;2023-05-19T00:38:29;100060;;;9.22;98.3
44127;BME280;29786;50.798;7.302;2023-05-19T00:44:40;100060;;;9.35;97.37
44127;BME280;29786;50.798;7.302;2023-05-19T00:54:33;100060;;;9.16;99.19
44127;BME280;29786;50.798;7.302;2023-05-19T00:59:29;100060;;;8.8;100
44127;BME280;29786;50.798;7.302;2023-05-19T01:05:40;100060;;;8.67;100
44127;BME280;29786;50.798;7.302;2023-05-19T01:10:36;100070;;;8.58;100
44127;BME280;29786;50.798;7.302;2023-05-19T01:15:34;100060;;;8.64;100
44127;BME280;29786;50.798;7.302;2023-05-19T01:31:37;100050;;;8.35;100
44127;BME280;29786;50.798;7.302;2023-05-19T01:36:33;100040;;;8.17;100
44127;BME280;29786;50.798;7.302;2023-05-19T01:41:29;100040;;;8.22;100
44127;BME280;29786;50.798;7.302;2023-05-19T01:47:41;100040;;;8.18;100
44127;BME280;29786;50.798;7.302;2023-05-19T01:52:37;100040;;;8.17;100
44127;BME280;29786;50.798;7.302;2023-05-19T01:57:40;100040;;;8;100
44127;BME280;29786;50.798;7.302;2023-05-19T02:02:54;100030;;;7.87;100
44127;BME280;29786;50.798;7.302;2023-05-19T02:08:43;100040;;;7.75;100
44127;BME280;29786;50.798;7.302;2023-05-19T02:13:37;100050;;;7.66;100
44127;BME280;29786;50.798;7.302;2023-05-19T02:18:33;100050;;;7.66;100
44127;BME280;29786;50.798;7.302;2023-05-19T02:23:30;100050;;;7.55;100
44127;BME280;29786;50.798;7.302;2023-05-19T02:29:41;100050;;;7.77;100
44127;BME280;29786;50.798;7.302;2023-05-19T02:34:37;100060;;;7.68;100
44127;BME280;29786;50.798;7.302;2023-05-19T02:39:34;100050;;;7.62;100
44127;BME280;29786;50.798;7.302;2023-05-19T02:44:30;100050;;;7.65;100
44127;BME280;29786;50.798;7.302;2023-05-19T02:50:41;100050;;;7.6;100
44127;BME280;29786;50.798;7.302;2023-05-19T02:55:37;100050;;;7.67;100
44127;BME280;29786;50.798;7.302;2023-05-19T03:00:34;100040;;;7.59;100
44127;BME280;29786;50.798;7.302;2023-05-19T03:05:30;100040;;;7.56;100
44127;BME280;29786;50.798;7.302;2023-05-19T03:11:41;100040;;;7.25;100
44127;BME280;29786;50.798;7.302;2023-05-19T03:15:32;100040;;;7.22;100
44127;BME280;29786;50.798;7.302;2023-05-19T03:21:42;100030;;;7.07;100
44127;BME280;29786;50.798;7.302;2023-05-19T03:26:39;100020;;;7.2;100
44127;BME280;29786;50.798;7.302;2023-05-19T03:31:35;100010;;;6.98;100
44127;BME280;29786;50.798;7.302;2023-05-19T03:36:32;100020;;;7.03;100
44127;BME280;29786;50.798;7.302;2023-05-19T03:41:29;100030;;;7;100
44127;BME280;29786;50.798;7.302;2023-05-19T03:47:39;100040;;;7.07;100
44127;BME280;29786;50.798;7.302;2023-05-19T03:52:36;100040;;;6.81;100
44127;BME280;29786;50.798;7.302;2023-05-19T03:57:32;100040;;;7.01;100
44127;BME280;29786;50.798;7.302;2023-05-19T04:02:29;100040;;;7;100
44127;BME280;29786;50.798;7.302;2023-05-19T04:08:39;100040;;;6.93;100
44127;BME280;29786;50.798;7.302;2023-05-19T04:13:36;100040;;;7.17;100
44127;BME280;29786;50.798;7.302;2023-05-19T04:18:32;100040;;;7.34;100
44127;BME280;29786;50.798;7.302;2023-05-19T04:23:29;100050;;;7.39;100
44127;BME280;29786;50.798;7.302;2023-05-19T04:29:40;100040;;;7.47;100
44127;BME280;29786;50.798;7.302;2023-05-19T04:34:36;100040;;;7.65;100
44127;BME280;29786;50.798;7.302;2023-05-19T04:39:33;100040;;;7.77;100
44127;BME280;29786;50.798;7.302;2023-05-19T04:44:29;100040;;;7.72;100
44127;BME280;29786;50.798;7.302;2023-05-19T04:50:40;100040;;;8.14;100
44127;BME280;29786;50.798;7.302;2023-05-19T04:55:36;100050;;;8.34;100
44127;BME280;29786;50.798;7.302;2023-05-19T05:00:33;100050;;;8.62;100
44127;BME280;29786;50.798;7.302;2023-05-19T05:05:30;100050;;;8.83;100
44127;BME280;29786;50.798;7.302;2023-05-19T05:11:40;100050;;;8.78;100
44127;BME280;29786;50.798;7.302;2023-05-19T05:16:37;100050;;;9.05;100
44127;BME280;29786;50.798;7.302;2023-05-19T05:21:33;100050;;;9.27;100
44127;BME280;29786;50.798;7.302;2023-05-19T05:26:30;100060;;;9.67;100
44127;BME280;29786;50.798;7.302;2023-05-19T05:32:40;100060;;;9.52;100
44127;BME280;29786;50.798;7.302;2023-05-19T05:37:37;100060;;;9.87;100
44127;BME280;29786;50.798;7.302;2023-05-19T05:53:41;100040;;;10.86;98.35
44127;BME280;29786;50.798;7.302;2023-05-19T05:58:37;100040;;;11.04;98.23
44127;BME280;29786;50.798;7.302;2023-05-19T06:03:34;100050;;;11.23;95.94
44127;BME280;29786;50.798;7.302;2023-05-19T06:08:30;100050;;;11.37;97.13
44127;BME280;29786;50.798;7.302;2023-05-19T06:14:41;100040;;;11.63;90.78
44127;BME280;29786;50.798;7.302;2023-05-19T06:19:37;100040;;;11.8;88.49
44127;BME280;29786;50.798;7.302;2023-05-19T06:24:34;100050;;;12.14;85.89
44127;BME280;29786;50.798;7.302;2023-05-19T06:29:31;100040;;;12.19;85.16
44127;BME280;29786;50.798;7.302;2023-05-19T06:35:41;100040;;;12.61;82.32
44127;BME280;29786;50.798;7.302;2023-05-19T06:40:38;100050;;;12.78;77.82
44127;BME280;29786;50.798;7.302;2023-05-19T06:45:34;100040;;;13.14;79.69
44127;BME280;29786;50.798;7.302;2023-05-19T06:50:31;100040;;;13.36;76.68
44127;BME280;29786;50.798;7.302;2023-05-19T06:52:59;100040;;;13.59;73.25
44127;BME280;29786;50.798;7.302;2023-05-19T06:55:27;100050;;;13.53;76.9
44127;BME280;29786;50.798;7.302;2023-05-19T06:56:41;100040;;;13.62;77.73
44127;BME280;29786;50.798;7.302;2023-05-19T07:01:38;100040;;;13.84;75.72
44127;BME280;29786;50.798;7.302;2023-05-19T07:06:35;100040;;;14.04;75.32
44127;BME280;29786;50.798;7.302;2023-05-19T07:11:31;100040;;;14.15;73.16
44127;BME280;29786;50.798;7.302;2023-05-19T07:17:42;100040;;;14.53;66.57
44127;BME280;29786;50.798;7.302;2023-05-19T07:22:38;100030;;;14.82;66.95
44127;BME280;29786;50.798;7.302;2023-05-19T07:27:35;100030;;;15.21;64.23
44127;BME280;29786;50.798;7.302;2023-05-19T07:32:31;100030;;;15.35;61.88
44127;BME280;29786;50.798;7.302;2023-05-19T07:38:44;100020;;;15.18;60.66
44127;BME280;29786;50.798;7.302;2023-05-19T07:43:39;100030;;;15.4;62.79
44127;BME280;29786;50.798;7.302;2023-05-19T07:48:35;100000;;;15.67;59.6
44127;BME280;29786;50.798;7.302;2023-05-19T07:53:32;100010;;;16.03;59.98
44127;BME280;29786;50.798;7.302;2023-05-19T07:59:42;100010;;;16.42;59.61
44127;BME280;29786;50.798;7.302;2023-05-19T08:04:39;100010;;;16.51;58.37
44127;BME280;29786;50.798;7.302;2023-05-19T08:09:35;99990;;;16.4;56.69
44127;BME280;29786;50.798;7.302;2023-05-19T08:14:32;100000;;;16.87;55.16
44127;BME280;29786;50.798;7.302;2023-05-19T08:19:28;100000;;;17.21;53.08
44127;BME280;29786;50.798;7.302;2023-05-19T08:25:39;100000;;;17.58;52.39
44127;BME280;29786;50.798;7.302;2023-05-19T08:30:36;99990;;;17.39;49.4
44127;BME280;29786;50.798;7.302;2023-05-19T08:35:32;99990;;;17.73;48.77
44127;BME280;29786;50.798;7.302;2023-05-19T08:40:29;99980;;;17.4;53.02
44127;BME280;29786;50.798;7.302;2023-05-19T08:46:39;99980;;;17.71;52.63
44127;BME280;29786;50.798;7.302;2023-05-19T08:56:32;99970;;;18.64;48.16
44127;BME280;29786;50.798;7.302;2023-05-19T09:01:29;99960;;;17.89;48
44127;BME280;29786;50.798;7.302;2023-05-19T09:07:40;99960;;;18.52;47.74
44127;BME280;29786;50.798;7.302;2023-05-19T09:12:36;99950;;;18.29;46.72
44127;BME280;29786;50.798;7.302;2023-05-19T09:17:33;99940;;;19.78;42.29
44127;BME280;29786;50.798;7.302;2023-05-19T09:22:29;99940;;;19.59;45.02
44127;BME280;29786;50.798;7.302;2023-05-19T09:28:40;99940;;;20.12;43.15
44127;BME280;29786;50.798;7.302;2023-05-19T09:33:37;99930;;;20.95;42.35
44127;BME280;29786;50.798;7.302;2023-05-19T09:38:33;99930;;;20.56;44.59
44127;BME280;29786;50.798;7.302;2023-05-19T09:43:30;99930;;;20.08;44.2
44127;BME280;29786;50.798;7.302;2023-05-19T09:49:44;99930;;;18.89;47.5
44127;BME280;29786;50.798;7.302;2023-05-19T09:54:38;99930;;;18.69;46.03
44127;BME280;29786;50.798;7.302;2023-05-19T09:59:33;99920;;;18.62;46.29
44127;BME280;29786;50.798;7.302;2023-05-19T10:04:30;99920;;;18.67;45.55
44127;BME280;29786;50.798;7.302;2023-05-19T10:10:40;99920;;;19.14;44.58
44127;BME280;29786;50.798;7.302;2023-05-19T10:15:39;99920;;;18.46;45.06
44127;BME280;29786;50.798;7.302;2023-05-19T10:20:33;99910;;;18.99;44.06
44127;BME280;29786;50.798;7.302;2023-05-19T10:31:41;99900;;;19.15;42.75
44127;BME280;29786;50.798;7.302;2023-05-19T10:46:30;99890;;;20.94;40.54
44127;BME280;29786;50.798;7.302;2023-05-19T10:52:41;99890;;;20.69;42.03
44127;BME280;29786;50.798;7.302;2023-05-19T10:57:37;99890;;;20.78;41.36
44127;BME280;29786;50.798;7.302;2023-05-19T11:02:38;99880;;;20.33;42.08
44127;BME280;29786;50.798;7.302;2023-05-19T11:07:31;99870;;;21.05;39.65
44127;BME280;29786;50.798;7.302;2023-05-19T11:13:42;99870;;;21.04;41.3
44127;BME280;29786;50.798;7.302;2023-05-19T11:18:38;99870;;;22.12;39.24
44127;BME280;29786;50.798;7.302;2023-05-19T11:21:06;99870;;;21.53;39.05
44127;BME280;29786;50.798;7.302;2023-05-19T11:23:36;99870;;;21.74;39.18
44127;BME280;29786;50.798;7.302;2023-05-19T11:28:31;99860;;;21.34;37.4
44127;BME280;29786;50.798;7.302;2023-05-19T11:33:36;99840;;;20.2;39.92
44127;BME280;29786;50.798;7.302;2023-05-19T11:38:32;99850;;;20.82;40.33
44127;BME280;29786;50.798;7.302;2023-05-19T11:43:29;99860;;;21.52;38.53
44127;BME280;29786;50.798;7.302;2023-05-19T11:49:43;99840;;;22.85;34.98
44127;BME280;29786;50.798;7.302;2023-05-19T11:59:34;99830;;;23.92;34.34
44127;BME280;29786;50.798;7.302;2023-05-19T12:04:29;99820;;;24.96;31.85
44127;BME280;29786;50.798;7.302;2023-05-19T12:10:40;99810;;;26.32;30.19
44127;BME280;29786;50.798;7.302;2023-05-19T12:15:36;99810;;;27.17;28.84
44127;BME280;29786;50.798;7.302;2023-05-19T12:20:33;99800;;;25.75;28.28
44127;BME280;29786;50.798;7.302;2023-05-19T12:25:29;99800;;;25.52;29.44
44127;BME280;29786;50.798;7.302;2023-05-19T12:31:40;99800;;;25.9;30.94
44127;BME280;29786;50.798;7.302;2023-05-19T12:36:36;99790;;;27.56;28.9
44127;BME280;29786;50.798;7.302;2023-05-19T12:41:33;99780;;;28.3;27.99
44127;BME280;29786;50.798;7.302;2023-05-19T12:46:31;99770;;;27.78;28.94
44127;BME280;29786;50.798;7.302;2023-05-19T12:52:42;99760;;;28.61;25.88
44127;BME280;29786;50.798;7.302;2023-05-19T12:57:37;99760;;;29.21;26.65
44127;BME280;29786;50.798;7.302;2023-05-19T13:02:33;99760;;;29.73;26.95
44127;BME280;29786;50.798;7.302;2023-05-19T13:07:30;99760;;;30.56;25.38
44127;BME280;29786;50.798;7.302;2023-05-19T13:13:41;99760;;;30.9;23.96
44127;BME280;29786;50.798;7.302;2023-05-19T13:18:37;99740;;;30.96;24.98
44127;BME280;29786;50.798;7.302;2023-05-19T13:23:33;99750;;;30.78;24.98
44127;BME280;29786;50.798;7.302;2023-05-19T13:28:30;99740;;;28.96;27.7
44127;BME280;29786;50.798;7.302;2023-05-19T13:34:41;99740;;;30.5;25.48
44127;BME280;29786;50.798;7.302;2023-05-19T13:39:37;99730;;;30.78;22.01
44127;BME280;29786;50.798;7.302;2023-05-19T13:44:34;99720;;;32.88;21.61
44127;BME280;29786;50.798;7.302;2023-05-19T13:49:30;99720;;;32.58;24.07
44127;BME280;29786;50.798;7.302;2023-05-19T13:55:41;99720;;;28.83;27.87
44127;BME280;29786;50.798;7.302;2023-05-19T14:00:37;99720;;;29.06;27.15
44127;BME280;29786;50.798;7.302;2023-05-19T14:05:34;99710;;;29.6;23.96
44127;BME280;29786;50.798;7.302;2023-05-19T14:10:31;99710;;;29.64;27.31
44127;BME280;29786;50.798;7.302;2023-05-19T14:16:41;99710;;;28.73;27.03
44127;BME280;29786;50.798;7.302;2023-05-19T14:21:38;99690;;;33.06;21.52
44127;BME280;29786;50.798;7.302;2023-05-19T14:26:34;99690;;;34.37;21.91
44127;BME280;29786;50.798;7.302;2023-05-19T14:31:31;99690;;;34.59;21.35
44127;BME280;29786;50.798;7.302;2023-05-19T14:37:42;99680;;;33.49;21.51
44127;BME280;29786;50.798;7.302;2023-05-19T14:42:38;99690;;;34.3;22.31
44127;BME280;29786;50.798;7.302;2023-05-19T14:47:35;99680;;;34.96;20.08
44127;BME280;29786;50.798;7.302;2023-05-19T14:52:31;99680;;;35.02;20.51
44127;BME280;29786;50.798;7.302;2023-05-19T14:57:28;99680;;;33.14;22.48
44127;BME280;29786;50.798;7.302;2023-05-19T15:03:38;99670;;;33.16;21.71
44127;BME280;29786;50.798;7.302;2023-05-19T15:08:35;99680;;;28.26;26.19
44127;BME280;29786;50.798;7.302;2023-05-19T15:13:31;99680;;;30.15;25.95
44127;BME280;29786;50.798;7.302;2023-05-19T15:19:42;99680;;;26.5;28.08
44127;BME280;29786;50.798;7.302;2023-05-19T15:24:39;99670;;;25.79;29.71
44127;BME280;29786;50.798;7.302;2023-05-19T15:29:35;99650;;;24.43;32.76
44127;BME280;29786;50.798;7.302;2023-05-19T15:34:32;99670;;;24.94;31.39
44127;BME280;29786;50.798;7.302;2023-05-19T15:40:42;99670;;;25.36;32.29
44127;BME280;29786;50.798;7.302;2023-05-19T15:45:39;99670;;;25.24;31.91
44127;BME280;29786;50.798;7.302;2023-05-19T15:50:36;99650;;;23.86;34.01
44127;BME280;29786;50.798;7.302;2023-05-19T15:55:32;99670;;;23.18;34.04
44127;BME280;29786;50.798;7.302;2023-05-19T16:00:28;99670;;;22.95;35.22
44127;BME280;29786;50.798;7.302;2023-05-19T16:06:39;99660;;;22.72;35.79
44127;BME280;29786;50.798;7.302;2023-05-19T16:11:36;99630;;;23.17;36.71
44127;BME280;29786;50.798;7.302;2023-05-19T16:16:32;99650;;;23.14;36.56
44127;BME280;29786;50.798;7.302;2023-05-19T16:21:29;99650;;;22.48;36.73
44127;BME280;29786;50.798;7.302;2023-05-19T16:27:39;99650;;;22.04;36.67
44127;BME280;29786;50.798;7.302;2023-05-19T16:37:33;99650;;;22.75;36.06
44127;BME280;29786;50.798;7.302;2023-05-19T16:42:29;99650;;;25.11;33.18
44127;BME280;29786;50.798;7.302;2023-05-19T16:48:40;99650;;;22.7;35.99
44127;BME280;29786;50.798;7.302;2023-05-19T16:53:36;99640;;;22.4;36.8
44127;BME280;29786;50.798;7.302;2023-05-19T16:58:33;99640;;;22.97;36.42
44127;BME280;29786;50.798;7.302;2023-05-19T17:09:40;99630;;;29.6;28.25
44127;BME280;29786;50.798;7.302;2023-05-19T17:14:36;99640;;;25.95;31.69
44127;BME280;29786;50.798;7.302;2023-05-19T17:19:33;99640;;;23.88;33.75
44127;BME280;29786;50.798;7.302;2023-05-19T17:24:30;99640;;;22.58;35.78
44127;BME280;29786;50.798;7.302;2023-05-19T17:30:40;99640;;;21.98;37.9
44127;BME280;29786;50.798;7.302;2023-05-19T17:35:37;99640;;;21.96;38.51
44127;BME280;29786;50.798;7.302;2023-05-19T17:40:34;99640;;;21.45;39.03
44127;BME280;29786;50.798;7.302;2023-05-19T17:45:30;99650;;;21.14;39.15
44127;BME280;29786;50.798;7.302;2023-05-19T17:51:40;99650;;;20.97;39.48
44127;BME280;29786;50.798;7.302;2023-05-19T17:56:38;99660;;;20.79;40.07
44127;BME280;29786;50.798;7.302;2023-05-19T18:01:34;99660;;;20.59;40.23
44127;BME280;29786;50.798;7.302;2023-05-19T18:06:31;99660;;;19.87;41.45
44127;BME280;29786;50.798;7.302;2023-05-19T18:12:41;99660;;;19.54;41.95
44127;BME280;29786;50.798;7.302;2023-05-19T18:16:23;99670;;;19.35;42.31
44127;BME280;29786;50.798;7.302;2023-05-19T18:17:37;99670;;;19.34;42.6
44127;BME280;29786;50.798;7.302;2023-05-19T18:22:34;99670;;;19.18;43.79
44127;BME280;29786;50.798;7.302;2023-05-19T18:27:30;99680;;;18.87;44.06
44127;BME280;29786;50.798;7.302;2023-05-19T18:33:42;99690;;;18.91;44.29
44127;BME280;29786;50.798;7.302;2023-05-19T18:38:38;99690;;;18.95;44.57
44127;BME280;29786;50.798;7.302;2023-05-19T18:43:34;99690;;;18.95;44.32
44127;BME280;29786;50.798;7.302;2023-05-19T18:48:31;99700;;;18.96;44.46
44127;BME280;29786;50.798;7.302;2023-05-19T18:54:41;99710;;;18.39;45.56
44127;BME280;29786;50.798;7.302;2023-05-19T18:59:38;99700;;;18.29;45.96
44127;BME280;29786;50.798;7.302;2023-05-19T19:04:35;99710;;;18.07;46.83
44127;BME280;29786;50.798;7.302;2023-05-19T19:09:31;99710;;;17.6;47.71
44127;BME280;29786;50.798;7.302;2023-05-19T19:15:42;99710;;;17.28;48.54
44127;BME280;29786;50.798;7.302;2023-05-19T19:20:38;99720;;;16.93;49.65
44127;BME280;29786;50.798;7.302;2023-05-19T19:25:35;99730;;;16.61;50.65
44127;BME280;29786;50.798;7.302;2023-05-19T19:30:31;99730;;;16.4;50.88
44127;BME280;29786;50.798;7.302;2023-05-19T19:36:42;99740;;;16.35;51.99
44127;BME280;29786;50.798;7.302;2023-05-19T19:41:38;99740;;;16.12;52.29
44127;BME280;29786;50.798;7.302;2023-05-19T19:46:35;99730;;;15.96;53.19
44127;BME280;29786;50.798;7.302;2023-05-19T19:51:32;99740;;;15.82;53.22
44127;BME280;29786;50.798;7.302;2023-05-19T19:57:42;99740;;;15.57;53.95
44127;BME280;29786;50.798;7.302;2023-05-19T20:02:39;99760;;;15.46;54.36
44127;BME280;29786;50.798;7.302;2023-05-19T20:07:35;99740;;;15.22;55.51
44127;BME280;29786;50.798;7.302;2023-05-19T20:12:32;99760;;;15.3;56.13
44127;BME280;29786;50.798;7.302;2023-05-19T20:18:42;99760;;;15.06;57.21
44127;BME280;29786;50.798;7.302;2023-05-19T20:23:39;99770;;;14.96;58.57
44127;BME280;29786;50.798;7.302;2023-05-19T20:28:35;99750;;;14.87;59.43
44127;BME280;29786;50.798;7.302;2023-05-19T20:33:32;99770;;;14.68;61.54
44127;BME280;29786;50.798;7.302;2023-05-19T20:39:43;99770;;;14.55;62.43
44127;BME280;29786;50.798;7.302;2023-05-19T20:44:39;99770;;;14.45;62.25
44127;BME280;29786;50.798;7.302;2023-05-19T20:49:36;99770;;;14.21;62.64
44127;BME280;29786;50.798;7.302;2023-05-19T20:54:32;99790;;;14.2;64.45
44127;BME280;29786;50.798;7.302;2023-05-19T20:59:29;99790;;;14.16;64.13
44127;BME280;29786;50.798;7.302;2023-05-19T21:05:39;99800;;;14.05;64.81
44127;BME280;29786;50.798;7.302;2023-05-19T21:15:32;99800;;;13.89;65.95
44127;BME280;29786;50.798;7.302;2023-05-19T21:20:29;99810;;;13.93;66.52
44127;BME280;29786;50.798;7.302;2023-05-19T21:26:40;99810;;;13.87;67.35
44127;BME280;29786;50.798;7.302;2023-05-19T21:31:36;99810;;;13.73;68.18
44127;BME280;29786;50.798;7.302;2023-05-19T21:36:33;99810;;;13.64;69.08
44127;BME280;29786;50.798;7.302;2023-05-19T21:47:40;99810;;;13.23;72.97
44127;BME280;29786;50.798;7.302;2023-05-19T21:52:36;99810;;;13.16;74.11
44127;BME280;29786;50.798;7.302;2023-05-19T21:57:33;99810;;;13.03;75.45
44127;BME280;29786;50.798;7.302;2023-05-19T22:02:30;99820;;;12.91;76.59
44127;BME280;29786;50.798;7.302;2023-05-19T22:08:40;99810;;;12.88;76.27
44127;BME280;29786;50.798;7.302;2023-05-19T22:13:37;99810;;;12.84;77.41
44127;BME280;29786;50.798;7.302;2023-05-19T22:18:33;99810;;;12.76;78.4
44127;BME280;29786;50.798;7.302;2023-05-19T22:23:30;99800;;;12.68;79.18
44127;BME280;29786;50.798;7.302;2023-05-19T22:29:40;99800;;;12.64;80.83
44127;BME280;29786;50.798;7.302;2023-05-19T22:34:37;99790;;;12.74;80.75
44127;BME280;29786;50.798;7.302;2023-05-19T22:39:34;99790;;;12.75;80.94
44127;BME280;29786;50.798;7.302;2023-05-19T22:44:30;99800;;;12.63;82.46
44127;BME280;29786;50.798;7.302;2023-05-19T22:50:41;99790;;;12.7;81.78
44127;BME280;29786;50.798;7.302;2023-05-19T22:55:37;99790;;;12.78;80.09
44127;BME280;29786;50.798;7.302;2023-05-19T23:00:34;99790;;;12.59;82.34
44127;BME280;29786;50.798;7.302;2023-05-19T23:05:30;99790;;;12.58;83.67
44127;BME280;29786;50.798;7.302;2023-05-19T23:11:41;99780;;;12.43;85.6
44127;BME280;29786;50.798;7.302;2023-05-19T23:16:38;99780;;;12.39;85.84
44127;BME280;29786;50.798;7.302;2023-05-19T23:21:34;99780;;;12.36;86.59
44127;BME280;29786;50.798;7.302;2023-05-19T23:26:31;99780;;;12.1;89.85
44127;BME280;29786;50.798;7.302;2023-05-19T23:32:41;99780;;;11.99;90.52
44127;BME280;29786;50.798;7.302;2023-05-19T23:37:38;99770;;;11.79;93.17
44127;BME280;29786;50.798;7.302;2023-05-19T23:42:34;99780;;;11.78;94.01
44127;BME280;29786;50.798;7.302;2023-05-19T23:47:31;99770;;;11.74;94.02
44127;BME280;29786;50.798;7.302;2023-05-19T23:53:42;99770;;;11.58;95.43
44127;BME280;29786;50.798;7.302;2023-05-19T23:57:32;99770;;;11.51;96.83
